sensor_id;sensor_type;location;lat;lon;timestamp;P1;durP1;ratioP1;P2;durP2;ratioP2
30303;SDS011;17112;48.636;10.152;2022-08-01T00:01:01;2.83;;;1.08;;
30303;SDS011;17112;48.636;10.152;2022-08-01T00:03:27;2.38;;;1.20;;
30303;SDS011;17112;48.636;10.152;2022-08-01T00:05:53;1.33;;;1.20;;
30303;SDS011;17112;48.636;10.152;2022-08-01T00:08:18;1.42;;;1.00;;
30303;SDS011;17112;48.636;10.152;2022-08-01T00:10:44;3.88;;;1.10;;
30303;SDS011;17112;48.636;10.152;2022-08-01T00:13:10;2.92;;;1.20;;
30303;SDS011;17112;48.636;10.152;2022-08-01T00:15:35;4.57;;;1.52;;
30303;SDS011;17112;48.636;10.152;2022-08-01T00:18:01;5.13;;;1.25;;
30303;SDS011;17112;48.636;10.152;2022-08-01T00:20:27;2.28;;;1.25;;
30303;SDS011;17112;48.636;10.152;2022-08-01T00:22:53;2.63;;;1.17;;
30303;SDS011;17112;48.636;10.152;2022-08-01T00:25:18;6.00;;;1.20;;
30303;SDS011;17112;48.636;10.152;2022-08-01T00:27:44;1.98;;;1.20;;
30303;SDS011;17112;48.636;10.152;2022-08-01T00:30:10;2.33;;;1.38;;
30303;SDS011;17112;48.636;10.152;2022-08-01T00:32:35;2.05;;;1.40;;
30303;SDS011;17112;48.636;10.152;2022-08-01T00:35:01;4.13;;;2.72;;
30303;SDS011;17112;48.636;10.152;2022-08-01T00:37:27;4.97;;;3.05;;
30303;SDS011;17112;48.636;10.152;2022-08-01T00:39:52;8.55;;;5.47;;
30303;SDS011;17112;48.636;10.152;2022-08-01T00:42:18;11.75;;;6.43;;
30303;SDS011;17112;48.636;10.152;2022-08-01T00:44:44;8.88;;;6.00;;
30303;SDS011;17112;48.636;10.152;2022-08-01T00:47:10;6.45;;;5.13;;
30303;SDS011;17112;48.636;10.152;2022-08-01T00:49:36;6.82;;;2.72;;
30303;SDS011;17112;48.636;10.152;2022-08-01T00:52:02;4.88;;;2.10;;
30303;SDS011;17112;48.636;10.152;2022-08-01T00:54:29;5.22;;;1.70;;
30303;SDS011;17112;48.636;10.152;2022-08-01T00:56:55;1.83;;;1.40;;
30303;SDS011;17112;48.636;10.152;2022-08-01T00:59:22;3.95;;;1.25;;
30303;SDS011;17112;48.636;10.152;2022-08-01T01:01:48;2.00;;;1.13;;
30303;SDS011;17112;48.636;10.152;2022-08-01T01:04:14;5.60;;;1.38;;
30303;SDS011;17112;48.636;10.152;2022-08-01T01:09:27;1.55;;;1.23;;
30303;SDS011;17112;48.636;10.152;2022-08-01T01:11:57;3.80;;;1.30;;
30303;SDS011;17112;48.636;10.152;2022-08-01T01:17:03;2.03;;;1.27;;
30303;SDS011;17112;48.636;10.152;2022-08-01T01:19:33;2.17;;;1.30;;
30303;SDS011;17112;48.636;10.152;2022-08-01T01:24:37;2.38;;;1.40;;
30303;SDS011;17112;48.636;10.152;2022-08-01T01:29:41;4.68;;;1.30;;
30303;SDS011;17112;48.636;10.152;2022-08-01T01:32:09;2.22;;;1.20;;
30303;SDS011;17112;48.636;10.152;2022-08-01T01:34:42;3.17;;;1.33;;
30303;SDS011;17112;48.636;10.152;2022-08-01T01:37:20;2.08;;;1.35;;
30303;SDS011;17112;48.636;10.152;2022-08-01T01:39:50;2.08;;;0.90;;
30303;SDS011;17112;48.636;10.152;2022-08-01T01:42:17;2.83;;;1.30;;
30303;SDS011;17112;48.636;10.152;2022-08-01T01:44:45;1.48;;;1.20;;
30303;SDS011;17112;48.636;10.152;2022-08-01T01:47:12;2.13;;;1.40;;
30303;SDS011;17112;48.636;10.152;2022-08-01T01:49:40;2.33;;;1.30;;
30303;SDS011;17112;48.636;10.152;2022-08-01T01:52:07;1.77;;;1.25;;
30303;SDS011;17112;48.636;10.152;2022-08-01T01:54:39;1.17;;;0.90;;
30303;SDS011;17112;48.636;10.152;2022-08-01T01:57:07;5.67;;;1.47;;
30303;SDS011;17112;48.636;10.152;2022-08-01T01:59:36;1.80;;;1.17;;
30303;SDS011;17112;48.636;10.152;2022-08-01T02:02:04;6.05;;;1.63;;
30303;SDS011;17112;48.636;10.152;2022-08-01T02:04:31;3.65;;;1.55;;
30303;SDS011;17112;48.636;10.152;2022-08-01T02:07:01;1.55;;;1.35;;
30303;SDS011;17112;48.636;10.152;2022-08-01T02:09:28;1.52;;;1.17;;
30303;SDS011;17112;48.636;10.152;2022-08-01T02:11:55;4.53;;;1.30;;
30303;SDS011;17112;48.636;10.152;2022-08-01T02:14:23;4.93;;;1.60;;
30303;SDS011;17112;48.636;10.152;2022-08-01T02:16:52;3.55;;;1.40;;
30303;SDS011;17112;48.636;10.152;2022-08-01T02:19:19;1.67;;;1.30;;
30303;SDS011;17112;48.636;10.152;2022-08-01T02:21:56;2.28;;;1.25;;
30303;SDS011;17112;48.636;10.152;2022-08-01T02:24:35;2.15;;;1.42;;
30303;SDS011;17112;48.636;10.152;2022-08-01T02:27:37;1.98;;;1.25;;
30303;SDS011;17112;48.636;10.152;2022-08-01T02:30:08;1.73;;;1.08;;
30303;SDS011;17112;48.636;10.152;2022-08-01T02:32:44;1.52;;;1.10;;
30303;SDS011;17112;48.636;10.152;2022-08-01T02:35:20;2.40;;;1.50;;
30303;SDS011;17112;48.636;10.152;2022-08-01T02:37:49;1.48;;;1.17;;
30303;SDS011;17112;48.636;10.152;2022-08-01T02:40:17;4.60;;;1.23;;
30303;SDS011;17112;48.636;10.152;2022-08-01T02:42:43;1.65;;;1.30;;
30303;SDS011;17112;48.636;10.152;2022-08-01T02:45:11;2.72;;;1.70;;
30303;SDS011;17112;48.636;10.152;2022-08-01T02:47:38;1.58;;;1.33;;
30303;SDS011;17112;48.636;10.152;2022-08-01T02:50:07;2.80;;;1.42;;
30303;SDS011;17112;48.636;10.152;2022-08-01T02:52:36;2.30;;;1.58;;
30303;SDS011;17112;48.636;10.152;2022-08-01T02:55:04;2.92;;;1.50;;
30303;SDS011;17112;48.636;10.152;2022-08-01T02:57:32;2.75;;;1.40;;
30303;SDS011;17112;48.636;10.152;2022-08-01T03:00:00;2.47;;;1.20;;
30303;SDS011;17112;48.636;10.152;2022-08-01T03:02:26;2.67;;;1.33;;
30303;SDS011;17112;48.636;10.152;2022-08-01T03:04:54;1.50;;;1.40;;
30303;SDS011;17112;48.636;10.152;2022-08-01T03:07:22;1.40;;;1.27;;
30303;SDS011;17112;48.636;10.152;2022-08-01T03:09:49;3.55;;;1.35;;
30303;SDS011;17112;48.636;10.152;2022-08-01T03:12:17;4.15;;;1.42;;
30303;SDS011;17112;48.636;10.152;2022-08-01T03:14:46;2.30;;;1.30;;
30303;SDS011;17112;48.636;10.152;2022-08-01T03:17:14;2.47;;;1.50;;
30303;SDS011;17112;48.636;10.152;2022-08-01T03:19:41;2.22;;;1.13;;
30303;SDS011;17112;48.636;10.152;2022-08-01T03:22:11;1.52;;;1.30;;
30303;SDS011;17112;48.636;10.152;2022-08-01T03:24:38;1.63;;;1.38;;
30303;SDS011;17112;48.636;10.152;2022-08-01T03:27:05;1.75;;;1.42;;
30303;SDS011;17112;48.636;10.152;2022-08-01T03:29:32;1.83;;;1.40;;
30303;SDS011;17112;48.636;10.152;2022-08-01T03:32:00;1.52;;;1.33;;
30303;SDS011;17112;48.636;10.152;2022-08-01T03:34:27;2.90;;;1.70;;
30303;SDS011;17112;48.636;10.152;2022-08-01T03:37:36;2.13;;;1.38;;
30303;SDS011;17112;48.636;10.152;2022-08-01T03:40:03;2.03;;;1.55;;
30303;SDS011;17112;48.636;10.152;2022-08-01T03:42:36;1.20;;;1.10;;
30303;SDS011;17112;48.636;10.152;2022-08-01T03:45:10;2.03;;;1.40;;
30303;SDS011;17112;48.636;10.152;2022-08-01T03:47:42;1.60;;;1.45;;
30303;SDS011;17112;48.636;10.152;2022-08-01T03:50:09;2.65;;;1.23;;
30303;SDS011;17112;48.636;10.152;2022-08-01T03:52:36;2.20;;;1.55;;
30303;SDS011;17112;48.636;10.152;2022-08-01T03:55:05;2.17;;;1.50;;
30303;SDS011;17112;48.636;10.152;2022-08-01T03:57:32;2.20;;;1.33;;
30303;SDS011;17112;48.636;10.152;2022-08-01T03:59:59;3.45;;;1.15;;
30303;SDS011;17112;48.636;10.152;2022-08-01T04:02:26;1.95;;;1.50;;
30303;SDS011;17112;48.636;10.152;2022-08-01T04:04:53;2.42;;;1.60;;
30303;SDS011;17112;48.636;10.152;2022-08-01T04:07:23;2.03;;;1.50;;
30303;SDS011;17112;48.636;10.152;2022-08-01T04:09:57;3.85;;;1.35;;
30303;SDS011;17112;48.636;10.152;2022-08-01T04:12:23;1.60;;;1.50;;
30303;SDS011;17112;48.636;10.152;2022-08-01T04:14:49;5.93;;;1.67;;
30303;SDS011;17112;48.636;10.152;2022-08-01T04:17:15;4.97;;;1.52;;
30303;SDS011;17112;48.636;10.152;2022-08-01T04:19:42;3.33;;;1.77;;
30303;SDS011;17112;48.636;10.152;2022-08-01T04:22:09;3.67;;;1.63;;
30303;SDS011;17112;48.636;10.152;2022-08-01T04:24:37;2.38;;;1.83;;
30303;SDS011;17112;48.636;10.152;2022-08-01T04:27:05;2.20;;;1.40;;
30303;SDS011;17112;48.636;10.152;2022-08-01T04:29:34;3.03;;;1.50;;
30303;SDS011;17112;48.636;10.152;2022-08-01T04:32:02;3.83;;;1.45;;
30303;SDS011;17112;48.636;10.152;2022-08-01T04:34:30;1.38;;;1.27;;
30303;SDS011;17112;48.636;10.152;2022-08-01T04:36:57;2.47;;;1.40;;
30303;SDS011;17112;48.636;10.152;2022-08-01T04:39:25;6.18;;;1.38;;
30303;SDS011;17112;48.636;10.152;2022-08-01T04:41:53;1.85;;;1.45;;
30303;SDS011;17112;48.636;10.152;2022-08-01T04:44:22;3.25;;;1.35;;
30303;SDS011;17112;48.636;10.152;2022-08-01T04:46:48;1.33;;;1.23;;
30303;SDS011;17112;48.636;10.152;2022-08-01T04:49:15;2.10;;;1.50;;
30303;SDS011;17112;48.636;10.152;2022-08-01T04:51:54;1.58;;;1.33;;
30303;SDS011;17112;48.636;10.152;2022-08-01T04:54:25;2.63;;;1.48;;
30303;SDS011;17112;48.636;10.152;2022-08-01T04:56:52;3.88;;;1.50;;
30303;SDS011;17112;48.636;10.152;2022-08-01T04:59:23;4.32;;;1.40;;
30303;SDS011;17112;48.636;10.152;2022-08-01T05:02:04;1.60;;;1.30;;
30303;SDS011;17112;48.636;10.152;2022-08-01T05:04:34;3.25;;;1.30;;
30303;SDS011;17112;48.636;10.152;2022-08-01T05:07:00;1.88;;;1.55;;
30303;SDS011;17112;48.636;10.152;2022-08-01T05:09:27;3.42;;;1.73;;
30303;SDS011;17112;48.636;10.152;2022-08-01T05:11:52;2.03;;;1.50;;
30303;SDS011;17112;48.636;10.152;2022-08-01T05:14:18;4.10;;;1.65;;
30303;SDS011;17112;48.636;10.152;2022-08-01T05:16:44;3.60;;;1.70;;
30303;SDS011;17112;48.636;10.152;2022-08-01T05:19:10;2.25;;;2.03;;
30303;SDS011;17112;48.636;10.152;2022-08-01T05:21:36;2.92;;;1.70;;
30303;SDS011;17112;48.636;10.152;2022-08-01T05:24:02;5.15;;;1.70;;
30303;SDS011;17112;48.636;10.152;2022-08-01T05:26:31;4.75;;;1.90;;
30303;SDS011;17112;48.636;10.152;2022-08-01T05:28:56;3.63;;;1.90;;
30303;SDS011;17112;48.636;10.152;2022-08-01T05:31:22;1.77;;;1.35;;
30303;SDS011;17112;48.636;10.152;2022-08-01T05:33:48;4.72;;;2.03;;
30303;SDS011;17112;48.636;10.152;2022-08-01T05:36:13;2.05;;;1.50;;
30303;SDS011;17112;48.636;10.152;2022-08-01T05:38:39;2.03;;;1.38;;
30303;SDS011;17112;48.636;10.152;2022-08-01T05:41:05;1.55;;;1.33;;
30303;SDS011;17112;48.636;10.152;2022-08-01T05:43:30;2.65;;;1.60;;
30303;SDS011;17112;48.636;10.152;2022-08-01T05:45:56;2.25;;;1.70;;
30303;SDS011;17112;48.636;10.152;2022-08-01T05:48:23;4.50;;;1.48;;
30303;SDS011;17112;48.636;10.152;2022-08-01T05:50:49;1.85;;;1.40;;
30303;SDS011;17112;48.636;10.152;2022-08-01T05:53:15;3.45;;;1.30;;
30303;SDS011;17112;48.636;10.152;2022-08-01T05:55:41;4.25;;;1.42;;
30303;SDS011;17112;48.636;10.152;2022-08-01T05:58:08;2.60;;;1.45;;
30303;SDS011;17112;48.636;10.152;2022-08-01T06:00:34;2.30;;;1.60;;
30303;SDS011;17112;48.636;10.152;2022-08-01T06:02:59;1.48;;;1.30;;
30303;SDS011;17112;48.636;10.152;2022-08-01T06:05:25;2.10;;;1.40;;
30303;SDS011;17112;48.636;10.152;2022-08-01T06:07:50;1.80;;;1.50;;
30303;SDS011;17112;48.636;10.152;2022-08-01T06:10:16;3.20;;;1.90;;
30303;SDS011;17112;48.636;10.152;2022-08-01T06:12:42;3.53;;;1.50;;
30303;SDS011;17112;48.636;10.152;2022-08-01T06:15:08;2.20;;;1.45;;
30303;SDS011;17112;48.636;10.152;2022-08-01T06:17:33;1.88;;;1.50;;
30303;SDS011;17112;48.636;10.152;2022-08-01T06:19:59;1.55;;;1.45;;
30303;SDS011;17112;48.636;10.152;2022-08-01T06:22:25;2.08;;;1.38;;
30303;SDS011;17112;48.636;10.152;2022-08-01T06:24:50;1.58;;;1.30;;
30303;SDS011;17112;48.636;10.152;2022-08-01T06:27:16;1.65;;;1.33;;
30303;SDS011;17112;48.636;10.152;2022-08-01T06:29:42;2.45;;;1.38;;
30303;SDS011;17112;48.636;10.152;2022-08-01T06:32:08;2.85;;;1.45;;
30303;SDS011;17112;48.636;10.152;2022-08-01T06:34:34;1.90;;;1.38;;
30303;SDS011;17112;48.636;10.152;2022-08-01T06:37:00;1.88;;;1.50;;
30303;SDS011;17112;48.636;10.152;2022-08-01T06:39:26;3.95;;;1.33;;
30303;SDS011;17112;48.636;10.152;2022-08-01T06:41:52;2.92;;;1.35;;
30303;SDS011;17112;48.636;10.152;2022-08-01T06:44:17;2.65;;;1.30;;
30303;SDS011;17112;48.636;10.152;2022-08-01T06:46:43;2.25;;;1.10;;
30303;SDS011;17112;48.636;10.152;2022-08-01T06:49:09;4.97;;;1.35;;
30303;SDS011;17112;48.636;10.152;2022-08-01T06:51:35;2.45;;;1.27;;
30303;SDS011;17112;48.636;10.152;2022-08-01T06:54:00;3.40;;;1.42;;
30303;SDS011;17112;48.636;10.152;2022-08-01T06:56:26;1.73;;;1.20;;
30303;SDS011;17112;48.636;10.152;2022-08-01T06:58:52;2.00;;;1.10;;
30303;SDS011;17112;48.636;10.152;2022-08-01T07:01:18;3.67;;;1.00;;
30303;SDS011;17112;48.636;10.152;2022-08-01T07:03:43;1.02;;;0.90;;
30303;SDS011;17112;48.636;10.152;2022-08-01T07:06:09;3.53;;;1.10;;
30303;SDS011;17112;48.636;10.152;2022-08-01T07:08:35;1.88;;;1.10;;
30303;SDS011;17112;48.636;10.152;2022-08-01T07:11:01;2.55;;;1.05;;
30303;SDS011;17112;48.636;10.152;2022-08-01T07:13:28;1.30;;;0.82;;
30303;SDS011;17112;48.636;10.152;2022-08-01T07:15:56;3.90;;;1.13;;
30303;SDS011;17112;48.636;10.152;2022-08-01T07:18:21;1.10;;;0.80;;
30303;SDS011;17112;48.636;10.152;2022-08-01T07:20:48;1.40;;;0.90;;
30303;SDS011;17112;48.636;10.152;2022-08-01T07:23:14;0.93;;;0.77;;
30303;SDS011;17112;48.636;10.152;2022-08-01T07:25:40;2.67;;;0.82;;
30303;SDS011;17112;48.636;10.152;2022-08-01T07:28:06;3.90;;;1.00;;
30303;SDS011;17112;48.636;10.152;2022-08-01T07:30:32;2.25;;;0.80;;
30303;SDS011;17112;48.636;10.152;2022-08-01T07:32:58;1.15;;;0.90;;
30303;SDS011;17112;48.636;10.152;2022-08-01T07:35:24;1.13;;;0.80;;
30303;SDS011;17112;48.636;10.152;2022-08-01T07:37:49;1.08;;;0.63;;
30303;SDS011;17112;48.636;10.152;2022-08-01T07:40:16;1.05;;;0.57;;
30303;SDS011;17112;48.636;10.152;2022-08-01T07:42:42;1.40;;;0.93;;
30303;SDS011;17112;48.636;10.152;2022-08-01T07:45:10;1.52;;;0.70;;
30303;SDS011;17112;48.636;10.152;2022-08-01T07:47:36;1.20;;;0.80;;
30303;SDS011;17112;48.636;10.152;2022-08-01T07:50:03;0.75;;;0.70;;
30303;SDS011;17112;48.636;10.152;2022-08-01T07:52:30;0.80;;;0.80;;
30303;SDS011;17112;48.636;10.152;2022-08-01T07:54:56;2.42;;;1.10;;
30303;SDS011;17112;48.636;10.152;2022-08-01T07:57:22;1.35;;;0.82;;
30303;SDS011;17112;48.636;10.152;2022-08-01T07:59:48;1.48;;;0.80;;
30303;SDS011;17112;48.636;10.152;2022-08-01T08:02:14;0.80;;;0.65;;
30303;SDS011;17112;48.636;10.152;2022-08-01T08:04:40;0.73;;;0.50;;
30303;SDS011;17112;48.636;10.152;2022-08-01T08:07:06;2.75;;;0.73;;
30303;SDS011;17112;48.636;10.152;2022-08-01T08:09:32;1.20;;;0.73;;
30303;SDS011;17112;48.636;10.152;2022-08-01T08:11:58;1.60;;;0.80;;
30303;SDS011;17112;48.636;10.152;2022-08-01T08:14:23;0.68;;;0.68;;
30303;SDS011;17112;48.636;10.152;2022-08-01T08:16:49;1.75;;;0.90;;
30303;SDS011;17112;48.636;10.152;2022-08-01T08:19:15;5.60;;;0.95;;
30303;SDS011;17112;48.636;10.152;2022-08-01T08:21:41;1.73;;;0.90;;
30303;SDS011;17112;48.636;10.152;2022-08-01T08:24:08;5.05;;;0.70;;
30303;SDS011;17112;48.636;10.152;2022-08-01T08:26:48;1.98;;;0.90;;
30303;SDS011;17112;48.636;10.152;2022-08-01T08:29:19;2.35;;;0.80;;
30303;SDS011;17112;48.636;10.152;2022-08-01T08:31:46;1.33;;;0.90;;
30303;SDS011;17112;48.636;10.152;2022-08-01T08:34:12;2.33;;;1.05;;
30303;SDS011;17112;48.636;10.152;2022-08-01T08:36:38;3.30;;;0.82;;
30303;SDS011;17112;48.636;10.152;2022-08-01T08:39:04;1.77;;;0.80;;
30303;SDS011;17112;48.636;10.152;2022-08-01T08:41:30;2.15;;;0.88;;
30303;SDS011;17112;48.636;10.152;2022-08-01T08:43:57;1.25;;;0.80;;
30303;SDS011;17112;48.636;10.152;2022-08-01T08:46:25;1.60;;;0.80;;
30303;SDS011;17112;48.636;10.152;2022-08-01T08:48:52;2.88;;;0.98;;
30303;SDS011;17112;48.636;10.152;2022-08-01T08:51:19;2.58;;;0.60;;
30303;SDS011;17112;48.636;10.152;2022-08-01T08:53:46;1.70;;;0.70;;
30303;SDS011;17112;48.636;10.152;2022-08-01T08:56:12;1.10;;;0.80;;
30303;SDS011;17112;48.636;10.152;2022-08-01T08:58:43;2.83;;;1.00;;
30303;SDS011;17112;48.636;10.152;2022-08-01T09:01:10;1.55;;;1.00;;
30303;SDS011;17112;48.636;10.152;2022-08-01T09:03:37;3.90;;;1.80;;
30303;SDS011;17112;48.636;10.152;2022-08-01T09:06:04;1.70;;;0.95;;
30303;SDS011;17112;48.636;10.152;2022-08-01T09:08:30;1.15;;;0.73;;
30303;SDS011;17112;48.636;10.152;2022-08-01T09:10:57;1.35;;;0.88;;
30303;SDS011;17112;48.636;10.152;2022-08-01T09:13:23;2.08;;;1.00;;
30303;SDS011;17112;48.636;10.152;2022-08-01T09:15:49;1.48;;;0.90;;
30303;SDS011;17112;48.636;10.152;2022-08-01T09:23:44;1.55;;;0.90;;
30303;SDS011;17112;48.636;10.152;2022-08-01T09:26:16;1.60;;;0.90;;
30303;SDS011;17112;48.636;10.152;2022-08-01T09:28:47;2.45;;;0.98;;
30303;SDS011;17112;48.636;10.152;2022-08-01T09:31:14;1.17;;;0.73;;
30303;SDS011;17112;48.636;10.152;2022-08-01T09:33:54;0.70;;;0.70;;
30303;SDS011;17112;48.636;10.152;2022-08-01T09:36:23;1.77;;;0.80;;
30303;SDS011;17112;48.636;10.152;2022-08-01T09:38:50;0.60;;;0.60;;
30303;SDS011;17112;48.636;10.152;2022-08-01T09:41:17;2.55;;;0.80;;
30303;SDS011;17112;48.636;10.152;2022-08-01T09:43:52;2.20;;;0.88;;
30303;SDS011;17112;48.636;10.152;2022-08-01T09:46:18;1.35;;;0.90;;
30303;SDS011;17112;48.636;10.152;2022-08-01T09:51:33;2.85;;;0.95;;
30303;SDS011;17112;48.636;10.152;2022-08-01T09:54:01;0.70;;;0.70;;
30303;SDS011;17112;48.636;10.152;2022-08-01T09:56:35;0.82;;;0.80;;
30303;SDS011;17112;48.636;10.152;2022-08-01T09:59:03;1.77;;;0.90;;
30303;SDS011;17112;48.636;10.152;2022-08-01T10:01:41;2.17;;;1.10;;
30303;SDS011;17112;48.636;10.152;2022-08-01T10:04:18;4.05;;;0.85;;
30303;SDS011;17112;48.636;10.152;2022-08-01T10:06:48;0.77;;;0.73;;
30303;SDS011;17112;48.636;10.152;2022-08-01T10:09:27;1.08;;;0.80;;
30303;SDS011;17112;48.636;10.152;2022-08-01T10:11:58;1.50;;;1.00;;
30303;SDS011;17112;48.636;10.152;2022-08-01T10:14:25;1.52;;;1.00;;
30303;SDS011;17112;48.636;10.152;2022-08-01T10:16:52;1.23;;;0.90;;
30303;SDS011;17112;48.636;10.152;2022-08-01T10:19:21;3.83;;;1.25;;
30303;SDS011;17112;48.636;10.152;2022-08-01T10:21:48;1.77;;;1.05;;
30303;SDS011;17112;48.636;10.152;2022-08-01T10:24:17;1.30;;;0.75;;
30303;SDS011;17112;48.636;10.152;2022-08-01T10:26:48;3.67;;;0.90;;
30303;SDS011;17112;48.636;10.152;2022-08-01T10:29:16;1.75;;;1.00;;
30303;SDS011;17112;48.636;10.152;2022-08-01T10:31:45;1.23;;;1.10;;
30303;SDS011;17112;48.636;10.152;2022-08-01T10:34:15;2.45;;;0.95;;
30303;SDS011;17112;48.636;10.152;2022-08-01T10:36:44;1.98;;;0.90;;
30303;SDS011;17112;48.636;10.152;2022-08-01T10:39:11;2.15;;;1.35;;
30303;SDS011;17112;48.636;10.152;2022-08-01T10:41:38;1.35;;;1.02;;
30303;SDS011;17112;48.636;10.152;2022-08-01T10:44:06;1.70;;;0.90;;
30303;SDS011;17112;48.636;10.152;2022-08-01T10:46:38;3.17;;;1.05;;
30303;SDS011;17112;48.636;10.152;2022-08-01T10:49:09;2.25;;;1.00;;
30303;SDS011;17112;48.636;10.152;2022-08-01T10:51:38;2.13;;;0.80;;
30303;SDS011;17112;48.636;10.152;2022-08-01T10:54:06;1.45;;;0.90;;
30303;SDS011;17112;48.636;10.152;2022-08-01T10:56:39;2.90;;;1.02;;
30303;SDS011;17112;48.636;10.152;2022-08-01T10:59:28;1.45;;;1.10;;
30303;SDS011;17112;48.636;10.152;2022-08-01T11:01:58;1.63;;;1.20;;
30303;SDS011;17112;48.636;10.152;2022-08-01T11:04:40;1.85;;;1.15;;
30303;SDS011;17112;48.636;10.152;2022-08-01T11:07:17;3.10;;;1.30;;
30303;SDS011;17112;48.636;10.152;2022-08-01T11:09:46;1.50;;;1.10;;
30303;SDS011;17112;48.636;10.152;2022-08-01T11:12:13;1.60;;;1.05;;
30303;SDS011;17112;48.636;10.152;2022-08-01T11:17:31;1.85;;;1.02;;
30303;SDS011;17112;48.636;10.152;2022-08-01T11:20:09;1.00;;;0.77;;
30303;SDS011;17112;48.636;10.152;2022-08-01T11:25:23;1.30;;;1.00;;
30303;SDS011;17112;48.636;10.152;2022-08-01T11:28:16;1.98;;;1.20;;
30303;SDS011;17112;48.636;10.152;2022-08-01T11:30:43;3.10;;;1.10;;
30303;SDS011;17112;48.636;10.152;2022-08-01T11:33:09;1.55;;;1.10;;
30303;SDS011;17112;48.636;10.152;2022-08-01T11:35:36;2.67;;;0.90;;
30303;SDS011;17112;48.636;10.152;2022-08-01T11:44:23;1.73;;;1.10;;
30303;SDS011;17112;48.636;10.152;2022-08-01T11:51:47;2.20;;;1.20;;
30303;SDS011;17112;48.636;10.152;2022-08-01T11:54:14;10.00;;;1.77;;
30303;SDS011;17112;48.636;10.152;2022-08-01T11:56:41;1.95;;;1.33;;
30303;SDS011;17112;48.636;10.152;2022-08-01T11:59:06;2.50;;;1.20;;
30303;SDS011;17112;48.636;10.152;2022-08-01T12:01:32;1.65;;;1.20;;
30303;SDS011;17112;48.636;10.152;2022-08-01T12:03:59;1.67;;;1.20;;
30303;SDS011;17112;48.636;10.152;2022-08-01T12:06:28;4.15;;;1.55;;
30303;SDS011;17112;48.636;10.152;2022-08-01T12:08:54;2.20;;;1.20;;
30303;SDS011;17112;48.636;10.152;2022-08-01T12:11:19;3.03;;;1.20;;
30303;SDS011;17112;48.636;10.152;2022-08-01T12:13:45;2.17;;;1.40;;
30303;SDS011;17112;48.636;10.152;2022-08-01T12:16:12;1.80;;;1.25;;
30303;SDS011;17112;48.636;10.152;2022-08-01T12:18:42;1.98;;;1.30;;
30303;SDS011;17112;48.636;10.152;2022-08-01T12:21:09;1.83;;;1.05;;
30303;SDS011;17112;48.636;10.152;2022-08-01T12:23:34;1.42;;;0.95;;
30303;SDS011;17112;48.636;10.152;2022-08-01T12:26:00;1.52;;;1.02;;
30303;SDS011;17112;48.636;10.152;2022-08-01T12:28:26;5.82;;;1.30;;
30303;SDS011;17112;48.636;10.152;2022-08-01T12:30:52;1.52;;;1.30;;
30303;SDS011;17112;48.636;10.152;2022-08-01T12:33:18;3.33;;;1.40;;
30303;SDS011;17112;48.636;10.152;2022-08-01T12:35:45;2.78;;;1.40;;
30303;SDS011;17112;48.636;10.152;2022-08-01T12:38:29;2.10;;;1.10;;
30303;SDS011;17112;48.636;10.152;2022-08-01T12:40:57;3.33;;;1.30;;
30303;SDS011;17112;48.636;10.152;2022-08-01T12:43:23;1.45;;;1.10;;
30303;SDS011;17112;48.636;10.152;2022-08-01T12:45:50;2.10;;;1.20;;
30303;SDS011;17112;48.636;10.152;2022-08-01T12:48:17;4.43;;;1.23;;
30303;SDS011;17112;48.636;10.152;2022-08-01T12:50:45;2.20;;;1.20;;
30303;SDS011;17112;48.636;10.152;2022-08-01T12:53:12;3.58;;;1.60;;
30303;SDS011;17112;48.636;10.152;2022-08-01T12:55:47;2.03;;;1.42;;
30303;SDS011;17112;48.636;10.152;2022-08-01T12:58:14;1.45;;;1.23;;
30303;SDS011;17112;48.636;10.152;2022-08-01T13:00:42;3.40;;;1.92;;
30303;SDS011;17112;48.636;10.152;2022-08-01T13:03:10;6.88;;;1.40;;
30303;SDS011;17112;48.636;10.152;2022-08-01T13:05:43;2.05;;;1.52;;
30303;SDS011;17112;48.636;10.152;2022-08-01T13:08:17;3.22;;;1.45;;
30303;SDS011;17112;48.636;10.152;2022-08-01T13:10:44;1.95;;;1.25;;
30303;SDS011;17112;48.636;10.152;2022-08-01T13:13:10;2.53;;;1.60;;
30303;SDS011;17112;48.636;10.152;2022-08-01T13:15:38;5.72;;;1.50;;
30303;SDS011;17112;48.636;10.152;2022-08-01T13:23:40;2.78;;;1.60;;
30303;SDS011;17112;48.636;10.152;2022-08-01T13:29:34;3.53;;;1.60;;
30303;SDS011;17112;48.636;10.152;2022-08-01T13:32:14;3.38;;;1.35;;
30303;SDS011;17112;48.636;10.152;2022-08-01T13:34:44;2.35;;;1.42;;
30303;SDS011;17112;48.636;10.152;2022-08-01T13:37:10;3.42;;;1.52;;
30303;SDS011;17112;48.636;10.152;2022-08-01T13:39:36;1.58;;;1.38;;
30303;SDS011;17112;48.636;10.152;2022-08-01T13:42:10;2.47;;;1.35;;
30303;SDS011;17112;48.636;10.152;2022-08-01T13:44:37;2.63;;;1.40;;
30303;SDS011;17112;48.636;10.152;2022-08-01T13:47:03;2.15;;;1.55;;
30303;SDS011;17112;48.636;10.152;2022-08-01T13:49:30;4.50;;;1.70;;
30303;SDS011;17112;48.636;10.152;2022-08-01T13:51:56;4.68;;;1.77;;
30303;SDS011;17112;48.636;10.152;2022-08-01T13:54:22;3.13;;;1.67;;
30303;SDS011;17112;48.636;10.152;2022-08-01T13:56:48;2.15;;;1.65;;
30303;SDS011;17112;48.636;10.152;2022-08-01T13:59:15;2.15;;;1.65;;
30303;SDS011;17112;48.636;10.152;2022-08-01T14:01:40;2.35;;;1.30;;
30303;SDS011;17112;48.636;10.152;2022-08-01T14:04:06;5.93;;;1.63;;
30303;SDS011;17112;48.636;10.152;2022-08-01T14:06:32;2.47;;;1.40;;
30303;SDS011;17112;48.636;10.152;2022-08-01T14:08:58;2.20;;;1.27;;
30303;SDS011;17112;48.636;10.152;2022-08-01T14:11:23;5.43;;;1.60;;
30303;SDS011;17112;48.636;10.152;2022-08-01T14:13:49;6.13;;;1.67;;
30303;SDS011;17112;48.636;10.152;2022-08-01T14:16:16;3.28;;;1.73;;
30303;SDS011;17112;48.636;10.152;2022-08-01T14:18:42;2.28;;;1.40;;
30303;SDS011;17112;48.636;10.152;2022-08-01T14:21:07;6.13;;;1.65;;
30303;SDS011;17112;48.636;10.152;2022-08-01T14:23:33;4.72;;;1.58;;
30303;SDS011;17112;48.636;10.152;2022-08-01T14:25:59;1.92;;;1.45;;
30303;SDS011;17112;48.636;10.152;2022-08-01T14:28:24;4.07;;;1.42;;
30303;SDS011;17112;48.636;10.152;2022-08-01T14:30:52;2.22;;;1.50;;
30303;SDS011;17112;48.636;10.152;2022-08-01T14:33:20;1.90;;;1.58;;
30303;SDS011;17112;48.636;10.152;2022-08-01T14:35:46;2.45;;;1.40;;
30303;SDS011;17112;48.636;10.152;2022-08-01T14:38:12;1.77;;;1.45;;
30303;SDS011;17112;48.636;10.152;2022-08-01T14:40:38;4.35;;;1.67;;
30303;SDS011;17112;48.636;10.152;2022-08-01T14:43:03;2.22;;;1.40;;
30303;SDS011;17112;48.636;10.152;2022-08-01T14:45:29;1.90;;;1.10;;
30303;SDS011;17112;48.636;10.152;2022-08-01T14:47:55;2.30;;;1.30;;
30303;SDS011;17112;48.636;10.152;2022-08-01T14:50:21;1.95;;;1.13;;
30303;SDS011;17112;48.636;10.152;2022-08-01T14:52:46;4.22;;;1.20;;
30303;SDS011;17112;48.636;10.152;2022-08-01T14:55:12;2.63;;;1.30;;
30303;SDS011;17112;48.636;10.152;2022-08-01T14:57:38;2.25;;;1.23;;
30303;SDS011;17112;48.636;10.152;2022-08-01T15:00:06;1.75;;;1.20;;
30303;SDS011;17112;48.636;10.152;2022-08-01T15:02:38;1.50;;;0.80;;
30303;SDS011;17112;48.636;10.152;2022-08-01T15:05:05;4.63;;;1.17;;
30303;SDS011;17112;48.636;10.152;2022-08-01T15:07:31;1.40;;;1.10;;
30303;SDS011;17112;48.636;10.152;2022-08-01T15:09:57;2.47;;;1.15;;
30303;SDS011;17112;48.636;10.152;2022-08-01T15:12:23;2.33;;;1.08;;
30303;SDS011;17112;48.636;10.152;2022-08-01T15:14:49;1.05;;;0.95;;
30303;SDS011;17112;48.636;10.152;2022-08-01T15:17:22;1.23;;;0.90;;
30303;SDS011;17112;48.636;10.152;2022-08-01T15:19:53;2.33;;;1.20;;
30303;SDS011;17112;48.636;10.152;2022-08-01T15:22:19;3.40;;;1.23;;